Time;durP1;ratioP1;P1;durP2;ratioP2;P2;SDS_P1;SDS_P2;PMS_P1;PMS_P2;Temp;Humidity;BMP_temperature;BMP_pressure;BME280_temperature;BME280_humidity;BME280_pressure;Samples;Min_cycle;Max_cycle;Signal;HPM_P1;HPM_P2
2023/10/16 00:01:42;;;;;;;1.30;0.70;;;7.70;99.90;;;;;;5065683;28;20079;-61
2023/10/16 00:04:11;;;;;;;2.85;0.52;;;7.70;99.90;;;;;;5057954;28;20693;-61
2023/10/16 00:06:38;;;;;;;1.15;0.30;;;7.70;99.90;;;;;;5058278;28;20115;-62
2023/10/16 00:09:14;;;;;;;2.22;0.50;;;7.70;99.90;;;;;;5003598;28;1071499;-62
2023/10/16 00:11:42;;;;;;;1.38;0.50;;;7.70;99.90;;;;;;5063093;28;20040;-62
2023/10/16 00:14:26;;;;;;;1.45;0.50;;;7.60;99.90;;;;;;5067099;28;20090;-61
2023/10/16 00:16:53;;;;;;;1.10;0.60;;;7.60;99.90;;;;;;5061167;28;20048;-61
2023/10/16 00:19:20;;;;;;;0.93;0.47;;;7.60;99.90;;;;;;5058010;28;20048;-61
2023/10/16 00:21:47;;;;;;;0.80;0.60;;;7.50;99.90;;;;;;5061191;28;20036;-61
2023/10/16 00:24:15;;;;;;;0.80;0.28;;;7.50;99.90;;;;;;5056921;28;20060;-61
2023/10/16 00:26:49;;;;;;;0.90;0.47;;;7.50;99.90;;;;;;5055432;28;20048;-62
2023/10/16 00:29:17;;;;;;;2.92;0.47;;;7.50;99.90;;;;;;5049177;28;20057;-64
2023/10/16 00:31:52;;;;;;;1.48;0.60;;;7.50;99.90;;;;;;5047033;28;20083;-61
2023/10/16 00:34:20;;;;;;;1.25;0.57;;;7.50;99.90;;;;;;5056849;28;20094;-62
2023/10/16 00:36:54;;;;;;;0.57;0.38;;;7.40;99.90;;;;;;5059445;28;20043;-61
2023/10/16 00:39:26;;;;;;;3.92;0.50;;;7.40;99.90;;;;;;5048719;28;20143;-62
2023/10/16 00:41:53;;;;;;;1.58;0.35;;;7.40;99.90;;;;;;5062418;28;20457;-61
2023/10/16 00:44:22;;;;;;;2.08;0.68;;;7.40;99.90;;;;;;5038918;28;20072;-62
2023/10/16 00:46:52;;;;;;;2.00;0.83;;;7.40;99.90;;;;;;5061469;28;20124;-66
2023/10/16 00:49:23;;;;;;;3.25;0.40;;;7.40;99.90;;;;;;5057104;28;20321;-62
2023/10/16 00:51:50;;;;;;;1.00;0.47;;;7.40;99.90;;;;;;5061883;28;20051;-61
2023/10/16 00:54:28;;;;;;;3.15;0.50;;;7.40;99.90;;;;;;5063138;28;20040;-63
2023/10/16 00:57:00;;;;;;;4.32;0.93;;;7.40;99.90;;;;;;5056568;28;20429;-63
2023/10/16 00:59:28;;;;;;;0.55;0.45;;;7.30;99.90;;;;;;5057578;28;20417;-63
2023/10/16 01:02:07;;;;;;;2.65;0.40;;;7.30;99.90;;;;;;5058442;28;20036;-61
2023/10/16 01:04:35;;;;;;;2.08;0.60;;;7.30;99.90;;;;;;5047289;28;20087;-63
2023/10/16 01:07:05;;;;;;;1.75;0.77;;;7.30;99.90;;;;;;5055121;28;20041;-64
2023/10/16 01:09:35;;;;;;;3.20;0.60;;;7.30;99.90;;;;;;5038987;28;20454;-60
2023/10/16 01:12:07;;;;;;;0.90;0.40;;;7.30;99.90;;;;;;5039563;28;20131;-60
2023/10/16 01:14:35;;;;;;;1.25;0.55;;;7.30;99.90;;;;;;5043930;28;20563;-63
2023/10/16 01:17:04;;;;;;;1.40;0.40;;;7.30;99.90;;;;;;5055973;28;20099;-60
2023/10/16 01:19:31;;;;;;;1.73;0.50;;;7.30;99.90;;;;;;5054806;28;20099;-60
2023/10/16 01:22:01;;;;;;;1.00;0.50;;;7.30;99.90;;;;;;5055392;28;20047;-62
2023/10/16 01:24:29;;;;;;;1.63;0.82;;;7.30;99.90;;;;;;5057563;28;20599;-61
2023/10/16 01:27:10;;;;;;;5.30;0.65;;;7.30;99.90;;;;;;5073278;28;20064;-62
2023/10/16 01:29:37;;;;;;;;;;;7.20;99.90;;;;;;5059298;28;20041;-63
2023/10/16 01:32:04;;;;;;;4.22;1.10;;;7.20;99.90;;;;;;5067446;28;19964;-61
2023/10/16 01:34:32;;;;;;;2.08;0.60;;;7.20;99.90;;;;;;5056526;28;20124;-61
2023/10/16 01:37:08;;;;;;;1.95;0.60;;;7.20;99.90;;;;;;5055843;28;20094;-61
2023/10/16 01:39:48;;;;;;;2.42;0.57;;;7.10;99.90;;;;;;5058063;28;20483;-65
2023/10/16 01:42:18;;;;;;;0.40;0.38;;;7.20;99.90;;;;;;5058272;28;20048;-62
2023/10/16 01:44:46;;;;;;;1.15;0.55;;;7.10;99.90;;;;;;5058134;28;20041;-61
2023/10/16 01:47:15;;;;;;;1.02;0.75;;;7.10;99.90;;;;;;5061638;28;20110;-61
2023/10/16 01:49:43;;;;;;;11.70;2.80;;;7.10;99.90;;;;;;5057535;28;20048;-60
2023/10/16 01:52:11;;;;;;;3.92;0.70;;;7.10;99.90;;;;;;5041207;28;20066;-62
2023/10/16 01:54:43;;;;;;;1.65;0.47;;;7.10;99.90;;;;;;5057497;28;20552;-61
2023/10/16 01:57:12;;;;;;;2.35;1.13;;;7.00;99.90;;;;;;5038639;28;20052;-62
2023/10/16 01:59:42;;;;;;;1.17;0.40;;;7.00;99.90;;;;;;5044172;28;20497;-64
2023/10/16 02:02:11;;;;;;;1.67;0.60;;;7.00;99.90;;;;;;5039371;28;20064;-62
2023/10/16 02:04:39;;;;;;;2.30;0.57;;;7.00;99.90;;;;;;5057182;28;20133;-63
2023/10/16 02:07:08;;;;;;;4.57;0.77;;;6.90;99.90;;;;;;5056541;28;20036;-65
2023/10/16 02:09:39;;;;;;;3.97;0.80;;;7.00;99.90;;;;;;5073047;28;20080;-66
2023/10/16 02:12:10;;;;;;;1.33;0.50;;;6.90;99.90;;;;;;5039995;28;20057;-61
2023/10/16 02:14:41;;;;;;;2.22;0.75;;;6.90;99.90;;;;;;5055541;28;20044;-61
2023/10/16 02:17:19;;;;;;;4.28;1.52;;;6.90;99.90;;;;;;5037531;28;20053;-61
2023/10/16 02:19:47;;;;;;;3.42;1.23;;;6.90;99.90;;;;;;5061168;28;20049;-62
2023/10/16 02:22:16;;;;;;;1.65;0.68;;;6.90;99.90;;;;;;5052727;28;20033;-61
2023/10/16 02:24:44;;;;;;;1.40;0.73;;;6.90;99.90;;;;;;5043282;28;20040;-61
2023/10/16 02:27:12;;;;;;;1.65;0.55;;;6.90;99.90;;;;;;5060487;28;20711;-61
2023/10/16 02:29:45;;;;;;;3.20;0.63;;;6.90;99.90;;;;;;5056113;28;20039;-61
2023/10/16 02:32:13;;;;;;;2.50;0.63;;;6.90;99.90;;;;;;5057657;28;20173;-64
2023/10/16 02:34:41;;;;;;;1.90;0.60;;;6.80;99.90;;;;;;5037843;28;20510;-61
2023/10/16 02:37:14;;;;;;;2.47;0.57;;;6.80;99.90;;;;;;5054376;28;20032;-61
2023/10/16 02:39:46;;;;;;;1.40;1.02;;;6.80;99.90;;;;;;5055724;28;20110;-62
2023/10/16 02:42:14;;;;;;;1.10;0.82;;;6.80;99.90;;;;;;5036881;28;20044;-61
2023/10/16 02:44:49;;;;;;;2.35;0.68;;;6.80;99.90;;;;;;5057644;28;20052;-60
2023/10/16 02:47:25;;;;;;;0.82;0.60;;;6.80;99.90;;;;;;5061384;28;20414;-62
2023/10/16 02:49:54;;;;;;;5.93;0.93;;;6.70;99.90;;;;;;5058567;28;20040;-62
2023/10/16 02:52:22;;;;;;;2.65;0.70;;;6.70;99.90;;;;;;5040957;28;20068;-61
2023/10/16 02:54:48;;;;;;;2.58;0.70;;;6.70;99.90;;;;;;5058942;28;20044;-61
2023/10/16 02:57:16;;;;;;;2.90;0.70;;;6.70;99.90;;;;;;5061271;28;20055;-62
2023/10/16 02:59:43;;;;;;;1.80;0.77;;;6.70;99.90;;;;;;5060163;28;20133;-64
2023/10/16 03:02:17;;;;;;;2.22;0.75;;;6.80;99.90;;;;;;5059352;28;20037;-61
2023/10/16 03:04:51;;;;;;;2.28;0.70;;;6.80;99.90;;;;;;5061937;28;20102;-63
2023/10/16 03:07:20;;;;;;;6.82;1.27;;;6.70;99.90;;;;;;5061288;28;20052;-61
2023/10/16 03:09:52;;;;;;;5.15;1.92;;;6.70;99.90;;;;;;5055993;28;20033;-65
2023/10/16 03:12:22;;;;;;;0.68;0.60;;;6.70;99.90;;;;;;5060472;28;20416;-65
2023/10/16 03:14:57;;;;;;;6.25;0.93;;;6.70;99.90;;;;;;5062836;28;20048;-61
2023/10/16 03:17:42;;;;;;;3.63;0.60;;;6.70;99.90;;;;;;5061092;28;20044;-62
2023/10/16 03:20:20;;;;;;;2.97;1.20;;;6.70;99.90;;;;;;5063796;28;20060;-63
2023/10/16 03:22:48;;;;;;;4.05;0.65;;;6.60;99.90;;;;;;5055517;28;20518;-60
2023/10/16 03:28:00;;;;;;;1.02;0.68;;;6.60;99.90;;;;;;5061038;28;20045;-64
2023/10/16 03:30:29;;;;;;;2.03;0.60;;;6.60;99.90;;;;;;5070379;28;20041;-63
2023/10/16 03:32:58;;;;;;;2.35;0.85;;;6.60;99.90;;;;;;5058836;28;20033;-61
2023/10/16 03:35:26;;;;;;;1.55;1.00;;;6.60;99.90;;;;;;5058525;28;20063;-61
2023/10/16 03:37:54;;;;;;;0.90;0.50;;;6.60;99.90;;;;;;5057176;28;20044;-62
2023/10/16 03:40:24;;;;;;;5.32;1.25;;;6.50;99.90;;;;;;5060185;28;20131;-60
2023/10/16 03:42:53;;;;;;;;;;;6.60;99.90;;;;;;5060482;28;20379;-61
2023/10/16 03:45:21;;;;;;;4.40;0.60;;;6.60;99.90;;;;;;5062584;28;19950;-64
2023/10/16 03:47:52;;;;;;;2.90;0.80;;;6.50;99.90;;;;;;5060064;28;20451;-61
2023/10/16 03:50:34;;;;;;;0.98;0.40;;;6.60;99.90;;;;;;5061635;28;20043;-61
2023/10/16 03:53:02;;;;;;;3.72;0.70;;;6.60;99.90;;;;;;5061905;28;20470;-62
2023/10/16 03:55:31;;;;;;;3.28;0.73;;;6.60;99.90;;;;;;5061706;28;20044;-61
2023/10/16 03:57:58;;;;;;;3.70;1.07;;;6.60;99.90;;;;;;5059673;28;20075;-60
2023/10/16 04:00:43;;;;;;;5.55;0.68;;;6.60;99.90;;;;;;5061762;28;20061;-60
2023/10/16 04:03:10;;;;;;;3.20;0.65;;;6.60;99.90;;;;;;5062934;28;20037;-61
2023/10/16 04:05:46;;;;;;;2.08;0.65;;;6.60;99.90;;;;;;5060546;28;20048;-61
2023/10/16 04:08:14;;;;;;;1.63;0.80;;;6.60;99.90;;;;;;5054966;28;20071;-60
2023/10/16 04:10:46;;;;;;;2.88;0.70;;;6.60;99.90;;;;;;5061448;28;20032;-62
2023/10/16 04:13:26;;;;;;;1.52;0.50;;;6.60;99.90;;;;;;5058190;28;20041;-65
2023/10/16 04:18:33;;;;;;;3.20;1.13;;;6.60;99.90;;;;;;5056403;28;20044;-62
2023/10/16 04:26:29;;;;;;;2.42;1.17;;;6.50;99.90;;;;;;5058570;28;20037;-61
2023/10/16 04:31:44;;;;;;;2.50;0.60;;;6.60;99.90;;;;;;5064207;28;20037;-61
2023/10/16 04:50:29;;;;;;;2.83;0.63;;;6.50;99.90;;;;;;5058356;28;20051;-61
2023/10/16 04:53:21;;;;;;;3.92;0.90;;;6.60;99.90;;;;;;5060132;28;20043;-64
2023/10/16 05:16:35;;;;;;;1.70;0.93;;;6.60;99.90;;;;;;5058142;28;20124;-62
2023/10/16 05:19:03;;;;;;;6.25;1.00;;;6.50;99.90;;;;;;5058488;28;20130;-63
2023/10/16 06:14:13;;;;;;;2.85;0.47;;;6.50;99.90;;;;;;5056574;28;20064;-61
2023/10/16 06:16:42;;;;;;;1.50;0.88;;;6.50;99.90;;;;;;5058771;28;20090;-62
2023/10/16 06:19:19;;;;;;;2.70;0.65;;;6.50;99.90;;;;;;5062778;28;20055;-62
2023/10/16 06:21:47;;;;;;;2.85;1.63;;;6.50;99.90;;;;;;5061950;28;20124;-60
2023/10/16 06:24:32;;;;;;;2.88;0.73;;;6.50;99.90;;;;;;5065672;28;20052;-61
2023/10/16 06:27:10;;;;;;;2.28;0.63;;;6.60;99.90;;;;;;5063946;28;20041;-63
2023/10/16 06:29:49;;;;;;;2.67;1.02;;;6.60;99.90;;;;;;5059977;28;20071;-61
2023/10/16 06:32:21;;;;;;;8.27;0.98;;;6.50;99.90;;;;;;5063442;28;20094;-63
2023/10/16 06:34:57;;;;;;;4.65;0.77;;;6.50;99.90;;;;;;5060349;28;20033;-61
2023/10/16 06:37:25;;;;;;;4.53;1.15;;;6.60;99.90;;;;;;5057333;28;20045;-61
2023/10/16 06:39:58;;;;;;;3.60;1.52;;;6.60;99.90;;;;;;5059837;28;20095;-62
2023/10/16 06:42:29;;;;;;;7.55;0.70;;;6.60;99.90;;;;;;5059980;28;20041;-61
2023/10/16 06:45:42;;;;;;;1.75;0.82;;;6.60;99.90;;;;;;5043695;28;20037;-61
2023/10/16 06:47:49;;;;;;;3.20;1.45;;;6.60;99.90;;;;;;5049717;28;20053;-61
2023/10/16 06:52:55;;;;;;;3.63;1.35;;;6.60;99.90;;;;;;5062052;28;20075;-62
2023/10/16 06:55:22;;;;;;;5.68;0.47;;;6.60;99.90;;;;;;5063714;28;20041;-61
2023/10/16 06:57:49;;;;;;;3.53;0.70;;;6.60;99.90;;;;;;5059273;28;20754;-61
2023/10/16 07:00:24;;;;;;;4.38;0.90;;;6.60;99.90;;;;;;5063586;28;20092;-63
2023/10/16 07:02:54;;;;;;;2.47;0.70;;;6.60;99.90;;;;;;5058044;28;20052;-61
2023/10/16 07:05:32;;;;;;;3.10;1.45;;;6.70;99.90;;;;;;5060947;28;20033;-60
2023/10/16 07:07:59;;;;;;;3.00;0.82;;;6.70;99.90;;;;;;5027994;28;20051;-60
2023/10/16 07:10:26;;;;;;;2.03;0.65;;;6.70;99.90;;;;;;5059978;28;20033;-62
2023/10/16 07:13:00;;;;;;;2.70;1.38;;;6.70;99.90;;;;;;5065245;28;20087;-64
2023/10/16 07:15:31;;;;;;;1.65;0.70;;;6.70;99.90;;;;;;5061359;28;20075;-61
2023/10/16 07:18:05;;;;;;;4.05;0.60;;;6.70;99.90;;;;;;5058913;28;20035;-62
2023/10/16 07:20:53;;;;;;;5.13;1.42;;;6.70;99.90;;;;;;5059106;28;20086;-62
2023/10/16 07:23:20;;;;;;;2.28;0.80;;;6.70;99.90;;;;;;5060082;28;20391;-63
2023/10/16 07:25:47;;;;;;;3.97;0.75;;;6.70;99.90;;;;;;5063393;28;20044;-61
2023/10/16 07:28:17;;;;;;;4.28;0.65;;;6.80;99.90;;;;;;5056223;28;20501;-64
2023/10/16 07:30:44;;;;;;;1.40;0.60;;;6.80;99.90;;;;;;5061737;28;20036;-61
2023/10/16 07:33:14;;;;;;;2.40;1.67;;;6.80;99.90;;;;;;5061330;28;20064;-60
2023/10/16 07:35:45;;;;;;;;;;;6.80;99.90;;;;;;5058849;28;20047;-60
2023/10/16 07:38:22;;;;;;;;;;;6.80;99.90;;;;;;5058279;28;19917;-61
2023/10/16 07:40:54;;;;;;;9.52;1.17;;;6.80;99.90;;;;;;5060833;28;19920;-61
2023/10/16 07:43:28;;;;;;;2.03;0.80;;;6.80;99.90;;;;;;5055404;28;20075;-62
2023/10/16 07:48:46;;;;;;;4.53;1.90;;;6.80;99.90;;;;;;5057745;28;20124;-61
2023/10/16 07:51:17;;;;;;;0.75;0.45;;;6.90;99.90;;;;;;5058277;28;20037;-64
2023/10/16 07:53:44;;;;;;;5.15;1.00;;;6.90;99.90;;;;;;5064493;28;20045;-61
2023/10/16 07:59:08;;;;;;;2.75;0.88;;;7.00;99.90;;;;;;5061238;28;20053;-60
2023/10/16 08:04:19;;;;;;;1.30;0.65;;;7.00;99.90;;;;;;5057951;28;20098;-60
2023/10/16 08:06:48;;;;;;;2.38;0.60;;;7.10;99.90;;;;;;5060809;28;20375;-60
2023/10/16 08:12:12;;;;;;;4.03;0.90;;;7.10;99.90;;;;;;5059584;28;20114;-61
2023/10/16 08:14:42;;;;;;;1.88;1.25;;;7.10;99.90;;;;;;5061192;28;20044;-60
2023/10/16 08:17:15;;;;;;;2.88;1.25;;;7.20;99.90;;;;;;5055509;28;20539;-61
2023/10/16 08:19:45;;;;;;;4.22;1.60;;;7.20;99.90;;;;;;5060646;28;20045;-61
2023/10/16 08:22:15;;;;;;;4.25;0.70;;;7.20;99.90;;;;;;5061133;28;20139;-63
2023/10/16 08:24:43;;;;;;;3.83;0.60;;;7.20;99.90;;;;;;5061454;28;20056;-62
2023/10/16 08:27:39;;;;;;;1.10;0.38;;;7.20;99.90;;;;;;5057129;28;20039;-60
2023/10/16 08:32:54;;;;;;;2.20;0.52;;;7.20;99.90;;;;;;5061581;28;20386;-62
2023/10/16 08:35:21;;;;;;;1.73;0.68;;;7.20;99.90;;;;;;5059395;28;20037;-60
2023/10/16 08:37:58;;;;;;;1.15;0.63;;;7.30;99.90;;;;;;5057840;28;20041;-60
2023/10/16 08:40:35;;;;;;;3.33;0.93;;;7.20;99.90;;;;;;5063542;28;20478;-62
2023/10/16 08:43:04;;;;;;;2.38;1.02;;;7.30;99.90;;;;;;5053701;28;20044;-61
2023/10/16 08:45:32;;;;;;;2.85;0.60;;;7.30;99.90;;;;;;5057862;28;20073;-62
2023/10/16 08:48:05;;;;;;;1.20;0.95;;;7.40;99.90;;;;;;5038023;28;20417;-60
2023/10/16 08:50:43;;;;;;;1.23;0.55;;;7.40;99.90;;;;;;5058654;28;20052;-61
2023/10/16 08:56:03;;;;;;;3.20;0.90;;;7.40;99.90;;;;;;5059705;28;20060;-64
2023/10/16 08:58:44;;;;;;;2.60;1.00;;;7.40;99.90;;;;;;5061034;28;20507;-61
2023/10/16 09:01:16;;;;;;;1.98;0.85;;;7.40;99.90;;;;;;5057378;28;20463;-61
2023/10/16 09:03:48;;;;;;;1.85;0.57;;;7.50;99.90;;;;;;5055545;28;20348;-61
2023/10/16 09:06:23;;;;;;;2.08;0.73;;;7.40;99.90;;;;;;5045973;28;21050;-63
2023/10/16 09:08:50;;;;;;;3.33;1.00;;;7.50;99.90;;;;;;5054471;28;20605;-65
2023/10/16 09:11:21;;;;;;;2.42;0.90;;;7.50;99.90;;;;;;5054283;28;20433;-63
2023/10/16 09:13:51;;;;;;;5.28;0.90;;;7.50;99.90;;;;;;5049167;28;20853;-62
2023/10/16 09:16:24;;;;;;;6.53;1.13;;;7.50;99.90;;;;;;5061522;28;20055;-62
2023/10/16 09:18:58;;;;;;;2.22;0.80;;;7.50;99.90;;;;;;5060604;28;20043;-63
2023/10/16 09:21:28;;;;;;;1.17;0.65;;;7.60;99.90;;;;;;5060334;28;20087;-63
2023/10/16 09:24:03;;;;;;;2.10;1.05;;;7.60;99.90;;;;;;5057718;28;20485;-63
2023/10/16 09:26:33;;;;;;;3.42;0.65;;;7.60;99.90;;;;;;5061570;28;20544;-64
2023/10/16 09:29:15;;;;;;;;;;;7.70;99.90;;;;;;5059913;28;20041;-61
2023/10/16 09:31:46;;;;;;;3.88;1.05;;;7.70;99.90;;;;;;5062031;28;19922;-62
2023/10/16 09:34:17;;;;;;;6.50;1.40;;;7.60;99.90;;;;;;5060165;28;20078;-61
2023/10/16 09:36:49;;;;;;;2.58;0.77;;;7.70;99.90;;;;;;5062348;28;20063;-63
2023/10/16 09:39:17;;;;;;;1.30;0.70;;;7.60;99.90;;;;;;5061552;28;20505;-61
2023/10/16 09:41:49;;;;;;;1.35;0.50;;;7.70;99.90;;;;;;5063061;28;20052;-61
2023/10/16 09:44:36;;;;;;;2.40;0.52;;;7.80;99.90;;;;;;5059483;28;20151;-62
2023/10/16 09:49:50;;;;;;;3.58;0.90;;;7.90;99.90;;;;;;5059439;28;20056;-61
2023/10/16 09:52:20;;;;;;;0.80;0.70;;;8.00;99.90;;;;;;5061985;28;20057;-65
2023/10/16 09:54:48;;;;;;;1.98;1.10;;;8.00;99.90;;;;;;5059388;28;20138;-62
2023/10/16 09:57:22;;;;;;;7.78;1.88;;;8.10;99.90;;;;;;5058927;28;20051;-62
2023/10/16 10:00:23;;;;;;;1.65;0.90;;;8.10;99.90;;;;;;5063788;28;20055;-61
2023/10/16 10:02:52;;;;;;;;;;;8.10;99.90;;;;;;5059314;28;20051;-62
2023/10/16 10:05:34;;;;;;;1.15;0.60;;;8.10;99.90;;;;;;5063474;28;19928;-66
2023/10/16 10:08:23;;;;;;;2.55;1.48;;;8.10;99.90;;;;;;5051830;28;20053;-67
2023/10/16 10:11:17;;;;;;;4.85;1.30;;;8.10;99.90;;;;;;5040064;28;20124;-62
2023/10/16 10:14:48;;;;;;;3.92;1.00;;;8.10;99.90;;;;;;5040912;28;20175;-62
2023/10/16 10:16:49;;;;;;;2.08;0.50;;;8.10;99.90;;;;;;5032139;28;20659;-62
2023/10/16 10:19:31;;;;;;;1.75;0.63;;;8.10;99.90;;;;;;5039926;28;20045;-62
2023/10/16 10:22:26;;;;;;;1.60;1.45;;;8.10;99.90;;;;;;5043408;28;20471;-61
2023/10/16 10:25:24;;;;;;;2.13;0.65;;;8.20;99.90;;;;;;5045908;28;20033;-62
2023/10/16 10:27:54;;;;;;;7.53;0.82;;;8.30;99.90;;;;;;5040465;28;20053;-63
2023/10/16 10:30:25;;;;;;;3.30;1.10;;;8.30;99.90;;;;;;5039356;28;20049;-61
2023/10/16 10:32:55;;;;;;;2.80;0.73;;;8.30;99.90;;;;;;5041049;28;20409;-60
2023/10/16 10:35:38;;;;;;;0.85;0.43;;;8.30;99.90;;;;;;5041532;28;20087;-67
2023/10/16 10:38:29;;;;;;;1.92;0.50;;;8.20;99.90;;;;;;5021751;28;20406;-62
2023/10/16 10:41:11;;;;;;;2.35;0.40;;;8.20;99.90;;;;;;5038241;28;20124;-64
2023/10/16 10:43:58;;;;;;;2.22;1.40;;;8.30;99.90;;;;;;5040545;28;20076;-64
2023/10/16 10:46:26;;;;;;;1.02;0.45;;;8.30;99.90;;;;;;5039537;28;20041;-62
2023/10/16 10:48:54;;;;;;;4.55;0.52;;;8.20;99.90;;;;;;5041445;28;20653;-66
2023/10/16 10:51:21;;;;;;;1.83;0.60;;;8.30;99.90;;;;;;5044454;28;22242;-63
2023/10/16 10:53:56;;;;;;;6.50;1.13;;;8.30;99.90;;;;;;5020480;28;20049;-61
2023/10/16 10:56:39;;;;;;;3.55;0.55;;;8.30;99.90;;;;;;5042103;28;20038;-61
2023/10/16 10:59:09;;;;;;;2.00;0.93;;;8.30;99.90;;;;;;5038891;28;20041;-62
2023/10/16 11:01:55;;;;;;;2.13;1.20;;;8.40;99.90;;;;;;5041391;28;20737;-61
2023/10/16 11:04:22;;;;;;;5.53;1.42;;;8.40;99.90;;;;;;5045626;28;20048;-61
2023/10/16 11:06:54;;;;;;;6.93;2.15;;;8.30;99.90;;;;;;5046236;28;20128;-62
2023/10/16 11:09:26;;;;;;;2.92;0.88;;;8.40;99.90;;;;;;5061387;28;20113;-61
2023/10/16 11:11:54;;;;;;;1.02;0.60;;;8.40;99.90;;;;;;5060542;28;20037;-63
2023/10/16 11:14:41;;;;;;;2.47;0.82;;;8.30;99.90;;;;;;5058394;28;20119;-62
2023/10/16 11:17:08;;;;;;;1.77;0.75;;;8.40;99.90;;;;;;5058432;28;20025;-62
2023/10/16 11:19:49;;;;;;;2.17;0.70;;;8.40;99.90;;;;;;5043473;28;20142;-64
2023/10/16 11:22:21;;;;;;;2.20;0.50;;;8.40;99.90;;;;;;5061015;28;20049;-65
2023/10/16 11:24:48;;;;;;;2.38;0.60;;;8.30;99.90;;;;;;5058262;28;20044;-61
2023/10/16 11:27:15;;;;;;;2.63;0.80;;;8.30;99.90;;;;;;5059527;28;20053;-62
2023/10/16 11:29:42;;;;;;;2.17;0.70;;;8.30;99.90;;;;;;5059645;28;20075;-61
2023/10/16 11:32:14;;;;;;;3.38;0.70;;;8.40;99.90;;;;;;5059199;28;20048;-63
2023/10/16 11:34:47;;;;;;;1.88;0.95;;;8.40;99.90;;;;;;5059412;28;20033;-65
2023/10/16 11:37:14;;;;;;;5.30;0.95;;;8.40;99.90;;;;;;5065257;28;20067;-66
2023/10/16 11:39:44;;;;;;;4.22;1.20;;;8.40;99.90;;;;;;5064602;28;20051;-61
2023/10/16 11:42:13;;;;;;;4.55;0.70;;;8.50;99.90;;;;;;5062554;28;20480;-63
2023/10/16 11:44:41;;;;;;;2.40;0.73;;;8.50;99.90;;;;;;5059626;28;20052;-63
2023/10/16 11:47:09;;;;;;;3.13;1.02;;;8.50;99.90;;;;;;5059070;28;20123;-64
2023/10/16 11:49:37;;;;;;;1.33;0.80;;;8.60;99.90;;;;;;5058743;28;20037;-61
2023/10/16 11:52:19;;;;;;;3.00;0.60;;;8.50;99.90;;;;;;5058306;28;20040;-61
2023/10/16 11:54:51;;;;;;;1.45;0.70;;;8.50;99.90;;;;;;5056350;28;20048;-63
2023/10/16 11:57:18;;;;;;;3.75;1.08;;;8.50;99.90;;;;;;5058354;28;20044;-64
2023/10/16 11:59:46;;;;;;;3.33;0.80;;;8.50;99.90;;;;;;5063308;28;20083;-63
2023/10/16 12:02:13;;;;;;;2.10;0.40;;;8.50;99.90;;;;;;5063570;28;20055;-62
2023/10/16 12:04:41;;;;;;;2.28;0.60;;;8.50;99.90;;;;;;5055951;28;20131;-64
2023/10/16 12:07:09;;;;;;;0.68;0.28;;;8.60;99.90;;;;;;5064059;28;20052;-61
2023/10/16 12:09:43;;;;;;;0.60;0.50;;;8.60;99.90;;;;;;5063172;28;20041;-63
2023/10/16 12:12:19;;;;;;;2.22;0.60;;;8.60;99.90;;;;;;5058439;28;20032;-67
2023/10/16 12:14:50;;;;;;;4.53;0.88;;;8.60;99.90;;;;;;5058587;28;20493;-62
2023/10/16 12:17:21;;;;;;;2.78;1.73;;;8.50;99.90;;;;;;5059274;28;20150;-63
2023/10/16 12:19:51;;;;;;;3.15;0.82;;;8.50;99.90;;;;;;5051739;28;20398;-61
2023/10/16 12:22:23;;;;;;;4.85;1.10;;;8.40;99.90;;;;;;5060487;28;20118;-63
2023/10/16 12:24:50;;;;;;;3.70;0.95;;;8.50;99.90;;;;;;5060163;28;20482;-63
2023/10/16 12:27:17;;;;;;;5.10;0.50;;;8.50;99.90;;;;;;5061465;28;20106;-65
2023/10/16 12:29:44;;;;;;;3.63;0.90;;;8.60;99.90;;;;;;5058746;28;20037;-62
2023/10/16 12:32:12;;;;;;;3.00;1.08;;;8.60;99.90;;;;;;5061227;28;20055;-63
2023/10/16 12:34:41;;;;;;;0.77;0.45;;;8.50;99.90;;;;;;5057867;28;20394;-62
2023/10/16 12:37:09;;;;;;;1.85;0.60;;;8.50;99.90;;;;;;5053162;28;20028;-62
2023/10/16 12:39:45;;;;;;;3.45;0.80;;;8.60;99.90;;;;;;5057127;28;20040;-61
2023/10/16 12:42:14;;;;;;;1.98;0.63;;;8.50;99.90;;;;;;5058755;28;20056;-62
2023/10/16 12:44:42;;;;;;;1.23;0.70;;;8.50;99.90;;;;;;5059518;28;20041;-62
2023/10/16 12:47:11;;;;;;;3.60;0.52;;;8.50;99.90;;;;;;5054286;28;20039;-61
2023/10/16 12:49:53;;;;;;;1.80;0.68;;;8.60;99.90;;;;;;5061213;28;20043;-60
2023/10/16 12:52:20;;;;;;;;;;;8.60;99.90;;;;;;5061230;28;20060;-64
2023/10/16 12:54:52;;;;;;;0.85;0.55;;;8.60;99.90;;;;;;5054474;28;19924;-61
2023/10/16 12:57:21;;;;;;;3.95;0.63;;;8.70;99.90;;;;;;5058330;28;20049;-61
2023/10/16 12:59:48;;;;;;;3.92;1.25;;;8.70;99.90;;;;;;5057870;28;20367;-61
2023/10/16 13:02:24;;;;;;;3.70;1.42;;;8.70;99.90;;;;;;5056634;28;20556;-64
2023/10/16 13:04:52;;;;;;;2.22;0.77;;;8.70;99.90;;;;;;5055539;28;20037;-61
2023/10/16 13:07:22;;;;;;;1.95;0.80;;;8.80;99.90;;;;;;5055764;28;20088;-65
2023/10/16 13:10:14;;;;;;;2.72;0.50;;;8.70;99.90;;;;;;5060680;28;20120;-63
2023/10/16 13:12:43;;;;;;;1.23;0.75;;;8.70;99.90;;;;;;5060177;28;20037;-61
2023/10/16 13:15:15;;;;;;;1.92;0.50;;;8.70;99.90;;;;;;5055298;28;20043;-64
2023/10/16 13:17:48;;;;;;;2.75;0.50;;;8.80;99.90;;;;;;5059925;28;20041;-62
2023/10/16 13:20:19;;;;;;;1.55;0.35;;;8.80;99.90;;;;;;5059826;28;20072;-68
2023/10/16 13:22:52;;;;;;;2.80;0.70;;;8.80;99.90;;;;;;5057955;28;20366;-64
2023/10/16 13:25:25;;;;;;;2.35;0.80;;;8.90;99.90;;;;;;5058384;28;20047;-64
2023/10/16 13:27:53;;;;;;;2.80;0.70;;;8.70;99.90;;;;;;5058244;28;20091;-61
2023/10/16 13:30:22;;;;;;;2.03;0.80;;;8.60;99.90;;;;;;5057775;28;20122;-64
2023/10/16 13:32:50;;;;;;;0.82;0.55;;;8.70;99.90;;;;;;5058608;28;20119;-64
2023/10/16 13:35:20;;;;;;;1.48;0.60;;;8.70;99.90;;;;;;5057098;28;20048;-67
2023/10/16 13:37:48;;;;;;;;;;;8.80;99.90;;;;;;5055968;28;20045;-61
2023/10/16 13:40:20;;;;;;;2.90;0.80;;;8.80;99.90;;;;;;5065811;28;19944;-66
2023/10/16 13:42:50;;;;;;;1.05;0.47;;;8.80;99.90;;;;;;5057663;28;20040;-61
2023/10/16 13:45:18;;;;;;;1.38;0.80;;;8.90;99.90;;;;;;5060695;28;20550;-62
2023/10/16 13:47:46;;;;;;;1.85;0.40;;;9.00;99.90;;;;;;5059300;28;20035;-63
2023/10/16 13:50:15;;;;;;;1.15;0.60;;;9.00;99.90;;;;;;5054366;28;20041;-63
2023/10/16 13:52:46;;;;;;;3.05;0.63;;;8.90;99.90;;;;;;5054759;28;20041;-63
2023/10/16 13:55:20;;;;;;;;;;;8.90;99.90;;;;;;5059475;28;20049;-63
2023/10/16 13:57:49;;;;;;;1.10;0.60;;;8.90;99.90;;;;;;5061920;28;20366;-68
2023/10/16 14:00:28;;;;;;;0.65;0.32;;;8.80;99.90;;;;;;5055985;28;20053;-65
2023/10/16 14:05:48;;;;;;;0.45;0.30;;;8.60;99.90;;;;;;5061315;28;20041;-61
2023/10/16 14:08:17;;;;;;;0.93;0.68;;;8.60;99.90;;;;;;5058812;28;20056;-62
2023/10/16 14:10:52;;;;;;;1.52;0.50;;;8.60;99.90;;;;;;5052028;28;20036;-62
2023/10/16 14:13:21;;;;;;;1.35;0.52;;;8.60;99.90;;;;;;5059899;28;20123;-64
2023/10/16 14:15:49;;;;;;;1.95;0.13;;;8.60;99.90;;;;;;5057118;28;20094;-61
2023/10/16 14:18:21;;;;;;;3.88;1.45;;;8.60;99.90;;;;;;5056730;28;20478;-61
2023/10/16 14:20:48;;;;;;;2.78;0.40;;;8.60;99.90;;;;;;5059644;28;20098;-64
2023/10/16 14:23:17;;;;;;;1.02;0.50;;;8.60;99.90;;;;;;5055826;28;20041;-67
2023/10/16 14:25:59;;;;;;;1.65;1.00;;;8.60;99.90;;;;;;5056296;28;20411;-63
2023/10/16 14:28:33;;;;;;;2.08;1.92;;;8.60;99.90;;;;;;5053191;28;20431;-61
2023/10/16 14:31:02;;;;;;;1.23;1.13;;;8.60;99.90;;;;;;5057466;28;20037;-62
2023/10/16 14:33:32;;;;;;;0.73;0.50;;;8.60;99.90;;;;;;5059641;28;20079;-61
2023/10/16 14:36:00;;;;;;;1.48;0.32;;;8.60;99.90;;;;;;5054202;28;20048;-62
2023/10/16 14:38:28;;;;;;;3.72;0.65;;;8.60;99.90;;;;;;5058331;28;20095;-62
2023/10/16 14:40:55;;;;;;;0.28;0.20;;;8.70;99.90;;;;;;5059232;28;20032;-62
2023/10/16 14:43:22;;;;;;;1.45;0.32;;;8.80;99.90;;;;;;5062853;28;20044;-64
2023/10/16 14:45:53;;;;;;;1.48;0.30;;;8.90;99.90;;;;;;5059487;28;20032;-61
2023/10/16 14:48:22;;;;;;;1.50;0.20;;;9.00;99.90;;;;;;5057531;28;20052;-62
2023/10/16 14:50:50;;;;;;;1.58;0.55;;;9.20;99.90;;;;;;5065918;28;20064;-62
2023/10/16 14:53:19;;;;;;;1.25;0.30;;;9.30;99.90;;;;;;5062905;28;20041;-65
2023/10/16 14:55:48;;;;;;;0.57;0.30;;;9.40;99.90;;;;;;5057638;28;20073;-61
2023/10/16 14:58:16;;;;;;;0.43;0.35;;;9.30;99.90;;;;;;5062471;28;20102;-65
2023/10/16 15:00:50;;;;;;;1.65;0.40;;;9.20;99.90;;;;;;5059505;28;20067;-63
2023/10/16 15:03:18;;;;;;;0.40;0.25;;;9.10;99.90;;;;;;5060176;28;20143;-65
2023/10/16 15:05:49;;;;;;;3.92;0.85;;;8.90;99.90;;;;;;5062166;28;20095;-64
2023/10/16 15:08:19;;;;;;;3.22;0.52;;;8.90;99.90;;;;;;5058805;28;20052;-62
2023/10/16 15:10:47;;;;;;;1.02;0.45;;;8.80;99.90;;;;;;5059496;28;20037;-61
2023/10/16 15:13:17;;;;;;;1.33;0.30;;;8.70;99.90;;;;;;5057329;28;20041;-63
2023/10/16 15:15:45;;;;;;;0.63;0.25;;;8.70;99.90;;;;;;5057181;28;20036;-62
2023/10/16 15:18:14;;;;;;;0.65;0.40;;;8.70;99.90;;;;;;5058252;28;20040;-63
2023/10/16 15:20:41;;;;;;;1.98;0.40;;;8.70;99.90;;;;;;5059522;28;20646;-64
2023/10/16 15:23:11;;;;;;;2.20;0.40;;;8.60;99.90;;;;;;5061181;28;20033;-62
2023/10/16 15:25:38;;;;;;;1.23;0.30;;;8.60;99.90;;;;;;5061713;28;20044;-63
2023/10/16 15:28:08;;;;;;;0.30;0.20;;;8.50;99.90;;;;;;5057023;28;20055;-64
2023/10/16 15:30:39;;;;;;;2.67;0.45;;;8.50;99.90;;;;;;5055288;28;20048;-61
2023/10/16 15:33:06;;;;;;;0.57;0.30;;;8.50;99.90;;;;;;5059334;28;20124;-59